createdAt,value
2022-12-11T00:00:22.177Z,-1.10
2022-12-11T00:02:49.435Z,-1.00
2022-12-11T00:05:16.427Z,-1.00
2022-12-11T00:07:43.432Z,-1.00
2022-12-11T00:10:10.282Z,-1.00
2022-12-11T00:12:37.128Z,-1.00
2022-12-11T00:15:04.236Z,-1.00
2022-12-11T00:17:31.053Z,-1.10
2022-12-11T00:19:57.898Z,-1.10
2022-12-11T00:22:24.732Z,-1.10
2022-12-11T00:24:51.937Z,-1.00
2022-12-11T00:27:18.743Z,-1.10
2022-12-11T00:29:45.664Z,-1.10
2022-12-11T00:32:12.548Z,-1.10
2022-12-11T00:34:40.568Z,-1.10
2022-12-11T00:37:07.464Z,-1.10
2022-12-11T00:39:34.257Z,-1.00
2022-12-11T00:42:01.042Z,-1.10
2022-12-11T00:44:28.011Z,-1.10
2022-12-11T00:46:54.803Z,-1.10
2022-12-11T00:49:21.650Z,-1.10
2022-12-11T00:51:48.467Z,-1.10
2022-12-11T00:54:15.326Z,-1.10
2022-12-11T00:56:42.798Z,-1.10
2022-12-11T00:59:09.926Z,-1.10
2022-12-11T01:01:36.741Z,-1.10
2022-12-11T01:04:03.586Z,-1.10
2022-12-11T01:06:30.511Z,-1.00
2022-12-11T01:09:16.129Z,-1.00
2022-12-11T01:11:43.422Z,-1.00
2022-12-11T01:14:11.513Z,-1.00
2022-12-11T01:16:38.634Z,-1.00
2022-12-11T01:19:05.439Z,-1.10
2022-12-11T01:21:32.355Z,-1.10
2022-12-11T01:23:59.227Z,-1.10
2022-12-11T01:26:26.072Z,-1.10
2022-12-11T01:28:52.926Z,-1.10
2022-12-11T01:31:21.067Z,-1.10
2022-12-11T01:33:48.160Z,-1.10
2022-12-11T01:36:20.623Z,-1.10
2022-12-11T01:38:48.873Z,-1.20
2022-12-11T01:41:17.573Z,-0.90
2022-12-11T01:44:06.783Z,-1.00
2022-12-11T01:46:36.185Z,-1.00
2022-12-11T01:49:07.316Z,-1.10
2022-12-11T01:51:39.714Z,-0.90
2022-12-11T01:54:10.953Z,-1.00
2022-12-11T01:56:39.786Z,-1.00
2022-12-11T01:59:09.467Z,-1.10
2022-12-11T02:01:54.236Z,-1.10
2022-12-11T02:04:21.385Z,-1.10
2022-12-11T02:06:50.372Z,-1.20
2022-12-11T02:09:22.092Z,-1.20
2022-12-11T02:12:10.414Z,-1.30
2022-12-11T02:14:51.234Z,-1.20
2022-12-11T02:17:23.585Z,-1.20
2022-12-11T02:19:58.302Z,-1.20
2022-12-11T02:22:47.122Z,-1.20
2022-12-11T02:25:40.537Z,-1.20
2022-12-11T02:28:25.505Z,-1.20
2022-12-11T02:30:59.230Z,-1.20
2022-12-11T02:33:43.973Z,-1.20
2022-12-11T02:36:13.202Z,-1.20
2022-12-11T02:38:43.147Z,-1.00
2022-12-11T02:41:12.105Z,-1.10
2022-12-11T02:43:40.415Z,-1.20
2022-12-11T02:46:08.292Z,-1.20
2022-12-11T02:48:37.150Z,-1.20
2022-12-11T02:51:06.698Z,-1.20
2022-12-11T02:53:37.576Z,-1.20
2022-12-11T02:56:12.619Z,-1.20
2022-12-11T02:58:48.009Z,-1.20
2022-12-11T03:01:15.120Z,-1.20
2022-12-11T03:03:42.269Z,-1.20
2022-12-11T03:06:14.048Z,-1.30
2022-12-11T03:08:40.843Z,-1.30
2022-12-11T03:11:11.833Z,-1.20
2022-12-11T03:13:42.145Z,-1.20
2022-12-11T03:16:35.232Z,-1.20
2022-12-11T03:19:36.036Z,-1.20
2022-12-11T03:22:15.630Z,-1.20
2022-12-11T03:24:58.408Z,-1.10
2022-12-11T03:27:45.046Z,-1.10
2022-12-11T03:30:18.358Z,-1.20
2022-12-11T03:33:08.520Z,-1.20
2022-12-11T03:35:41.602Z,-1.00
2022-12-11T03:38:34.201Z,-1.00
2022-12-11T03:41:03.970Z,-1.00
2022-12-11T03:43:32.252Z,-1.00
2022-12-11T03:46:00.601Z,-1.00
2022-12-11T03:48:35.947Z,-1.00
2022-12-11T03:51:06.672Z,-1.10
2022-12-11T03:53:35.418Z,-1.10
2022-12-11T03:56:05.371Z,-1.10
2022-12-11T03:58:32.485Z,-1.10
2022-12-11T04:00:59.468Z,-1.10
2022-12-11T04:03:26.400Z,-1.20
2022-12-11T04:05:55.529Z,-1.10
2022-12-11T04:08:23.389Z,-1.30
2022-12-11T04:11:11.078Z,-1.30
2022-12-11T04:13:38.894Z,-1.30
2022-12-11T04:16:06.333Z,-1.20
2022-12-11T04:18:51.755Z,-1.30
2022-12-11T04:21:39.645Z,-1.20
2022-12-11T04:24:16.471Z,-1.20
2022-12-11T04:26:47.470Z,-1.20
2022-12-11T04:29:15.480Z,-1.10
2022-12-11T04:31:42.318Z,-1.10
2022-12-11T04:34:09.307Z,-1.20
2022-12-11T04:36:36.182Z,-1.20
2022-12-11T04:39:05.248Z,-1.40
2022-12-11T04:41:32.196Z,-1.30
2022-12-11T04:43:59.029Z,-1.20
2022-12-11T04:46:26.071Z,-1.30
2022-12-11T04:48:57.255Z,-1.30
2022-12-11T04:51:25.141Z,-1.30
2022-12-11T04:53:52.139Z,-1.30
2022-12-11T04:56:19.066Z,-1.30
2022-12-11T04:58:48.346Z,-1.30
2022-12-11T05:01:20.912Z,-1.20
2022-12-11T05:03:48.332Z,-1.30
2022-12-11T05:06:15.506Z,-1.40
2022-12-11T05:08:43.290Z,-1.40
2022-12-11T05:11:12.345Z,-1.50
2022-12-11T05:13:39.833Z,-1.50
2022-12-11T05:16:11.036Z,-1.60
2022-12-11T05:18:38.308Z,-1.60
2022-12-11T05:21:08.334Z,-1.50
2022-12-11T05:23:35.186Z,-1.50
2022-12-11T05:26:06.222Z,-1.60
2022-12-11T05:28:35.903Z,-1.50
2022-12-11T05:31:09.091Z,-1.50
2022-12-11T05:33:36.149Z,-1.50
2022-12-11T05:36:03.860Z,-1.50
2022-12-11T05:38:30.896Z,-1.60
2022-12-11T05:40:59.592Z,-1.60
2022-12-11T05:43:28.425Z,-1.50
2022-12-11T05:45:55.635Z,-1.50
2022-12-11T05:48:22.544Z,-1.60
2022-12-11T05:50:59.701Z,-1.40
2022-12-11T05:53:26.981Z,-1.40
2022-12-11T05:55:53.915Z,-1.50
2022-12-11T05:58:21.520Z,-1.50
2022-12-11T06:00:48.678Z,-1.50
2022-12-11T06:03:15.985Z,-1.40
2022-12-11T06:05:43.492Z,-1.50
2022-12-11T06:08:10.480Z,-1.50
2022-12-11T06:10:37.364Z,-1.50
2022-12-11T06:13:04.435Z,-1.50
2022-12-11T06:15:32.264Z,-1.50
2022-12-11T06:17:59.035Z,-1.60
2022-12-11T06:20:25.839Z,-1.50
2022-12-11T06:22:52.615Z,-1.50
2022-12-11T06:25:19.349Z,-1.50
2022-12-11T06:27:46.132Z,-1.60
2022-12-11T06:30:13.310Z,-1.50
2022-12-11T06:32:40.127Z,-1.50
2022-12-11T06:35:07.138Z,-1.60
2022-12-11T06:37:35.853Z,-1.50
2022-12-11T06:40:04.125Z,-1.60
2022-12-11T06:42:31.620Z,-1.60
2022-12-11T06:44:59.812Z,-1.60
2022-12-11T06:47:27.948Z,-1.70
2022-12-11T06:49:55.181Z,-1.40
2022-12-11T06:52:23.171Z,-1.60
2022-12-11T06:54:50.153Z,-1.60
2022-12-11T06:57:17.610Z,-1.70
2022-12-11T06:59:44.434Z,-1.60
2022-12-11T07:02:16.244Z,-1.60
2022-12-11T07:04:43.552Z,-1.50
2022-12-11T07:07:11.303Z,-1.60
2022-12-11T07:09:40.102Z,-1.60
2022-12-11T07:12:07.329Z,-1.40
2022-12-11T07:14:34.361Z,-1.50
2022-12-11T07:17:01.199Z,-1.60
2022-12-11T07:19:28.048Z,-1.60
2022-12-11T07:21:54.867Z,-1.50
2022-12-11T07:24:22.069Z,-1.60
2022-12-11T07:26:48.917Z,-1.70
2022-12-11T07:29:15.700Z,-1.70
2022-12-11T07:31:42.671Z,-1.70
2022-12-11T07:34:12.960Z,-1.70
2022-12-11T07:36:40.326Z,-1.60
2022-12-11T07:39:09.026Z,-1.50
2022-12-11T07:41:35.884Z,-1.60
2022-12-11T07:44:03.547Z,-1.60
2022-12-11T07:46:32.998Z,-1.70
2022-12-11T07:49:03.447Z,-1.70
2022-12-11T07:51:32.939Z,-1.80
2022-12-11T07:54:10.684Z,-1.80
2022-12-11T07:56:37.502Z,-1.60
2022-12-11T07:59:05.950Z,-1.60
2022-12-11T08:01:36.587Z,-1.60
2022-12-11T08:04:09.815Z,-1.70
2022-12-11T08:06:38.594Z,-1.50
2022-12-11T08:09:07.956Z,-1.60
2022-12-11T08:11:35.312Z,-1.70
2022-12-11T08:14:02.665Z,-1.70
2022-12-11T08:16:29.874Z,-1.50
2022-12-11T08:18:57.669Z,-1.60
2022-12-11T08:21:26.704Z,-1.50
2022-12-11T08:23:57.943Z,-1.60
2022-12-11T08:26:27.526Z,-1.60
2022-12-11T08:28:54.497Z,-1.60
2022-12-11T08:31:21.703Z,-1.60
2022-12-11T08:33:49.531Z,-1.60
2022-12-11T08:36:19.706Z,-1.70
2022-12-11T08:38:47.086Z,-1.70
2022-12-11T08:41:17.110Z,-1.70
2022-12-11T08:43:44.274Z,-1.70
2022-12-11T08:46:12.362Z,-1.70
2022-12-11T08:48:40.425Z,-1.60
2022-12-11T08:51:10.868Z,-1.60
2022-12-11T08:53:38.944Z,-1.60
2022-12-11T08:56:14.879Z,-1.50
2022-12-11T08:58:42.242Z,-1.60
2022-12-11T09:01:13.238Z,-1.60
2022-12-11T09:03:40.780Z,-1.70
2022-12-11T09:06:13.046Z,-1.70
2022-12-11T09:08:40.617Z,-1.70
2022-12-11T09:11:13.171Z,-1.70
2022-12-11T09:13:40.699Z,-1.70
2022-12-11T09:16:16.316Z,-1.70
2022-12-11T09:18:46.166Z,-1.70
2022-12-11T09:21:15.017Z,-1.70
2022-12-11T09:23:41.996Z,-1.80
2022-12-11T09:26:12.375Z,-1.70
2022-12-11T09:28:45.787Z,-1.70
2022-12-11T09:31:19.109Z,-1.70
2022-12-11T09:33:46.517Z,-1.70
2022-12-11T09:36:13.385Z,-1.80
2022-12-11T09:38:40.269Z,-1.80
2022-12-11T09:41:22.388Z,-1.60
2022-12-11T09:43:59.463Z,-1.60
2022-12-11T09:46:33.587Z,-1.60
2022-12-11T09:49:09.885Z,-1.60
2022-12-11T09:51:49.497Z,-1.60
2022-12-11T09:54:16.273Z,-1.70
2022-12-11T09:56:50.142Z,-1.70
2022-12-11T09:59:19.776Z,-1.70
2022-12-11T10:01:50.855Z,-1.70
2022-12-11T10:04:29.657Z,-1.60
2022-12-11T10:07:13.421Z,-1.60
2022-12-11T10:09:43.131Z,-1.60
2022-12-11T10:12:31.558Z,-1.70
2022-12-11T10:15:35.236Z,-1.60
2022-12-11T10:18:05.284Z,-1.70
2022-12-11T10:20:39.277Z,-1.80
2022-12-11T10:23:08.968Z,-1.70
2022-12-11T10:25:58.610Z,-1.60
2022-12-11T10:28:27.949Z,-1.60
2022-12-11T10:31:10.967Z,-1.70
2022-12-11T10:34:01.252Z,-1.50
2022-12-11T10:36:31.497Z,-1.60
2022-12-11T10:39:02.903Z,-1.50
2022-12-11T10:41:39.048Z,-1.40
2022-12-11T10:44:35.268Z,-1.30
2022-12-11T10:47:06.485Z,-1.50
2022-12-11T10:49:35.273Z,-1.50
2022-12-11T10:52:09.335Z,-1.60
2022-12-11T10:54:39.381Z,-1.60
2022-12-11T10:57:08.939Z,-1.60
2022-12-11T10:59:54.801Z,-1.60
2022-12-11T11:02:41.310Z,-1.60
2022-12-11T11:05:35.530Z,-1.50
2022-12-11T11:08:15.345Z,-1.50
2022-12-11T11:10:54.644Z,-1.50
2022-12-11T11:13:24.186Z,-1.40
2022-12-11T11:16:06.684Z,-1.30
2022-12-11T11:18:34.421Z,-1.50
2022-12-11T11:21:02.416Z,-1.50
2022-12-11T11:23:29.570Z,-1.50
2022-12-11T11:25:59.459Z,-1.60
2022-12-11T11:28:30.619Z,-1.50
2022-12-11T11:31:02.191Z,-1.50
2022-12-11T11:33:30.996Z,-1.40
2022-12-11T11:36:22.684Z,-1.50
2022-12-11T11:39:02.629Z,-1.60
2022-12-11T11:41:31.727Z,-1.60
2022-12-11T11:44:02.410Z,-1.60
2022-12-11T11:46:44.153Z,-1.60
2022-12-11T11:49:19.077Z,-1.60
2022-12-11T11:51:51.455Z,-1.60
2022-12-11T11:54:21.341Z,-1.50
2022-12-11T11:56:54.088Z,-1.40
2022-12-11T11:59:32.175Z,-1.40
2022-12-11T12:01:59.648Z,-1.50
2022-12-11T12:04:35.025Z,-1.50
2022-12-11T12:07:07.729Z,-1.40
2022-12-11T12:09:54.171Z,-1.50
2022-12-11T12:12:55.389Z,-1.50
2022-12-11T12:15:27.755Z,-1.50
2022-12-11T12:18:25.128Z,-1.60
2022-12-11T12:21:03.619Z,-1.50
2022-12-11T12:23:36.306Z,-1.50
2022-12-11T12:26:13.944Z,-1.50
2022-12-11T12:28:51.987Z,-1.50
2022-12-11T12:31:48.527Z,-1.40
2022-12-11T12:34:39.818Z,-1.50
2022-12-11T12:37:13.541Z,-1.60
2022-12-11T12:39:52.558Z,-1.60
2022-12-11T12:42:42.862Z,-1.60
2022-12-11T12:45:15.684Z,-1.60
2022-12-11T12:47:46.740Z,-1.60
2022-12-11T12:50:26.717Z,-1.50
2022-12-11T12:52:55.251Z,-1.60
2022-12-11T12:55:31.799Z,-1.60
2022-12-11T12:58:00.939Z,-1.60
2022-12-11T13:00:33.659Z,-1.60
2022-12-11T13:03:29.181Z,-1.50
2022-12-11T13:05:59.137Z,-1.40
2022-12-11T13:08:47.469Z,-1.40
2022-12-11T13:11:18.201Z,-1.50
2022-12-11T13:14:01.018Z,-1.50
2022-12-11T13:16:40.191Z,-1.40
2022-12-11T13:19:27.081Z,-1.40
2022-12-11T13:22:12.411Z,-1.40
2022-12-11T13:24:59.589Z,-1.30
2022-12-11T13:27:42.781Z,-1.30
2022-12-11T13:30:15.631Z,-1.40
2022-12-11T13:32:54.773Z,-1.40
2022-12-11T13:35:21.656Z,-1.40
2022-12-11T13:37:52.043Z,-1.50
2022-12-11T13:40:25.614Z,-1.40
2022-12-11T13:43:00.640Z,-1.40
2022-12-11T13:45:29.672Z,-1.40
2022-12-11T13:47:58.296Z,-1.40
2022-12-11T13:50:32.158Z,-1.40
2022-12-11T13:53:01.857Z,-1.30
2022-12-11T13:55:35.924Z,-1.40
2022-12-11T13:58:02.717Z,-1.40
2022-12-11T14:00:32.981Z,-1.40
2022-12-11T14:03:04.816Z,-1.40
2022-12-11T14:05:31.910Z,-1.30
2022-12-11T14:08:03.911Z,-1.40
2022-12-11T14:10:32.705Z,-1.40
2022-12-11T14:12:59.514Z,-1.40
2022-12-11T14:15:28.118Z,-1.30
2022-12-11T14:17:55.883Z,-1.30
2022-12-11T14:20:25.913Z,-1.20
2022-12-11T14:22:52.741Z,-1.20
2022-12-11T14:25:25.889Z,-1.40
2022-12-11T14:27:56.902Z,-1.20
2022-12-11T14:30:31.577Z,-1.30
2022-12-11T14:33:04.934Z,-1.30
2022-12-11T14:35:40.129Z,-1.40
2022-12-11T14:38:24.306Z,-1.30
2022-12-11T14:40:56.451Z,-1.30
2022-12-11T14:43:35.953Z,-1.20
2022-12-11T14:46:10.824Z,-1.30
2022-12-11T14:48:46.817Z,-1.30
2022-12-11T14:51:17.740Z,-1.30
2022-12-11T14:53:48.721Z,-1.40
2022-12-11T14:56:25.647Z,-1.40
2022-12-11T14:59:02.584Z,-1.30
2022-12-11T15:01:32.745Z,-1.30
2022-12-11T15:04:24.557Z,-1.30
2022-12-11T15:06:52.193Z,-1.40
2022-12-11T15:09:26.698Z,-1.40
2022-12-11T15:11:56.999Z,-1.50
2022-12-11T15:14:25.189Z,-1.40
2022-12-11T15:16:54.718Z,-1.50
2022-12-11T15:19:29.860Z,-1.50
2022-12-11T15:22:05.590Z,-1.50
2022-12-11T15:24:40.030Z,-1.50
2022-12-11T15:27:23.881Z,-1.50
2022-12-11T15:29:50.708Z,-1.50
2022-12-11T15:32:19.845Z,-1.40
2022-12-11T15:34:55.919Z,-1.40
2022-12-11T15:37:32.031Z,-1.40
2022-12-11T15:40:04.585Z,-1.50
2022-12-11T15:42:36.726Z,-1.50
2022-12-11T15:45:06.868Z,-1.20
2022-12-11T15:47:33.686Z,-1.30
2022-12-11T15:50:07.629Z,-1.40
2022-12-11T15:52:34.651Z,-1.50
2022-12-11T15:55:01.471Z,-1.50
2022-12-11T15:57:28.467Z,-1.50
2022-12-11T15:59:56.089Z,-1.50
2022-12-11T16:02:24.389Z,-1.60
2022-12-11T16:04:51.212Z,-1.60
2022-12-11T16:07:26.277Z,-1.60
2022-12-11T16:09:53.701Z,-1.60
2022-12-11T16:12:20.558Z,-1.70
2022-12-11T16:14:47.437Z,-1.70
2022-12-11T16:17:15.497Z,-1.70
2022-12-11T16:19:43.239Z,-1.60
2022-12-11T16:22:11.623Z,-1.60
2022-12-11T16:24:39.571Z,-1.70
2022-12-11T16:27:07.520Z,-1.70
2022-12-11T16:29:38.737Z,-1.70
2022-12-11T16:32:08.183Z,-1.50
2022-12-11T16:34:36.401Z,-1.50
2022-12-11T16:37:04.342Z,-1.60
2022-12-11T16:39:31.225Z,-1.60
2022-12-11T16:41:58.161Z,-1.60
2022-12-11T16:44:27.417Z,-1.50
2022-12-11T16:46:54.828Z,-1.70
2022-12-11T16:49:22.334Z,-1.70
2022-12-11T16:51:49.688Z,-1.60
2022-12-11T16:54:17.345Z,-1.50
2022-12-11T16:56:44.764Z,-1.40
2022-12-11T16:59:12.851Z,-1.50
2022-12-11T17:01:40.021Z,-1.60
2022-12-11T17:04:07.033Z,-1.60
2022-12-11T17:06:33.955Z,-1.70
2022-12-11T17:09:00.835Z,-1.70
2022-12-11T17:11:27.826Z,-1.70
2022-12-11T17:13:56.628Z,-1.70
2022-12-11T17:16:26.078Z,-1.60
2022-12-11T17:18:53.541Z,-1.70
2022-12-11T17:21:22.300Z,-1.60
2022-12-11T17:23:50.484Z,-1.60
2022-12-11T17:26:18.298Z,-1.70
2022-12-11T17:28:45.256Z,-1.70
2022-12-11T17:31:18.254Z,-1.70
2022-12-11T17:33:46.170Z,-1.70
2022-12-11T17:36:15.517Z,-1.60
2022-12-11T17:38:42.438Z,-1.60
2022-12-11T17:41:15.497Z,-1.70
2022-12-11T17:43:48.166Z,-1.70
2022-12-11T17:46:15.077Z,-1.70
2022-12-11T17:48:43.051Z,-1.60
2022-12-11T17:51:13.162Z,-1.60
2022-12-11T17:53:40.302Z,-1.70
2022-12-11T17:56:08.430Z,-1.70
2022-12-11T17:58:35.644Z,-1.70
2022-12-11T18:01:07.897Z,-1.70
2022-12-11T18:03:35.299Z,-1.60
2022-12-11T18:06:14.373Z,-1.70
2022-12-11T18:08:42.007Z,-1.70
2022-12-11T18:11:15.298Z,-1.70
2022-12-11T18:13:43.718Z,-1.70
2022-12-11T18:16:26.082Z,-1.60
2022-12-11T18:18:53.543Z,-1.60
2022-12-11T18:21:24.273Z,-1.60
2022-12-11T18:23:51.517Z,-1.70
2022-12-11T18:26:19.359Z,-1.70
2022-12-11T18:28:46.931Z,-1.70
2022-12-11T18:31:14.223Z,-1.80
2022-12-11T18:33:43.280Z,-1.80
2022-12-11T18:36:11.570Z,-1.80
2022-12-11T18:38:38.797Z,-1.80
2022-12-11T18:41:08.084Z,-1.80
2022-12-11T18:43:36.940Z,-1.80
2022-12-11T18:46:10.710Z,-1.90
2022-12-11T18:48:37.753Z,-1.90
2022-12-11T18:51:09.926Z,-1.80
2022-12-11T18:53:39.223Z,-1.90
2022-12-11T18:56:15.957Z,-1.90
2022-12-11T18:58:43.462Z,-1.90
2022-12-11T19:01:16.110Z,-1.90
2022-12-11T19:03:43.987Z,-1.90
2022-12-11T19:06:14.329Z,-2.00
2022-12-11T19:08:41.544Z,-2.00
2022-12-11T19:11:09.045Z,-1.90
2022-12-11T19:13:36.260Z,-2.00
2022-12-11T19:16:03.303Z,-1.90
2022-12-11T19:18:30.229Z,-2.00
2022-12-11T19:21:08.048Z,-2.00
2022-12-11T19:23:36.445Z,-2.00
2022-12-11T19:26:03.524Z,-2.00
2022-12-11T19:28:31.099Z,-2.00
2022-12-11T19:30:57.976Z,-2.00
2022-12-11T19:33:24.844Z,-2.00
2022-12-11T19:36:01.230Z,-2.00
2022-12-11T19:38:28.037Z,-2.00
2022-12-11T19:40:54.856Z,-2.00
2022-12-11T19:43:21.657Z,-2.00
2022-12-11T19:45:48.649Z,-2.10
2022-12-11T19:48:15.481Z,-2.00
2022-12-11T19:50:42.270Z,-2.10
2022-12-11T19:53:09.053Z,-2.10
2022-12-11T19:55:35.807Z,-2.10
2022-12-11T19:58:02.622Z,-2.10
2022-12-11T20:00:29.455Z,-2.10
2022-12-11T20:02:56.337Z,-2.10
2022-12-11T20:05:23.184Z,-2.00
2022-12-11T20:07:50.046Z,-2.00
2022-12-11T20:10:16.992Z,-2.00
2022-12-11T20:12:43.820Z,-2.00
2022-12-11T20:15:11.594Z,-2.00
2022-12-11T20:17:43.236Z,-2.00
2022-12-11T20:20:10.870Z,-2.00
2022-12-11T20:22:37.784Z,-2.00
2022-12-11T20:25:04.918Z,-2.00
2022-12-11T20:27:31.900Z,-2.10
2022-12-11T20:29:58.727Z,-2.10
2022-12-11T20:32:25.736Z,-2.10
2022-12-11T20:34:56.378Z,-2.10
2022-12-11T20:37:25.997Z,-2.10
2022-12-11T20:39:53.493Z,-2.10
2022-12-11T20:42:20.719Z,-2.10
2022-12-11T20:44:49.341Z,-2.10
2022-12-11T20:47:19.588Z,-2.10
2022-12-11T20:49:47.775Z,-2.10
2022-12-11T20:52:14.764Z,-2.10
2022-12-11T20:54:41.658Z,-2.10
2022-12-11T20:57:08.504Z,-2.10
2022-12-11T20:59:35.352Z,-2.10
2022-12-11T21:02:02.259Z,-2.10
2022-12-11T21:04:29.198Z,-2.20
2022-12-11T21:06:56.197Z,-2.20
2022-12-11T21:09:25.756Z,-2.20
2022-12-11T21:11:52.998Z,-2.20
2022-12-11T21:14:20.028Z,-2.20
2022-12-11T21:16:47.428Z,-2.20
2022-12-11T21:19:17.435Z,-2.20
2022-12-11T21:21:45.310Z,-2.10
2022-12-11T21:24:26.484Z,-2.10
2022-12-11T21:26:55.939Z,-2.00
2022-12-11T21:29:24.566Z,-2.00
2022-12-11T21:31:51.795Z,-2.10
2022-12-11T21:34:25.068Z,-2.10
2022-12-11T21:36:56.557Z,-2.10
2022-12-11T21:39:25.391Z,-2.20
2022-12-11T21:41:52.879Z,-2.20
2022-12-11T21:47:06.562Z,-2.20
2022-12-11T21:49:33.463Z,-2.20
2022-12-11T21:52:00.400Z,-2.10
2022-12-11T21:54:27.269Z,-2.10
2022-12-11T21:56:54.641Z,-2.10
2022-12-11T21:59:21.619Z,-2.00
2022-12-11T22:01:48.478Z,-2.00
2022-12-11T22:04:15.847Z,-2.00
2022-12-11T22:06:43.663Z,-2.10
2022-12-11T22:09:12.451Z,-2.10
2022-12-11T22:11:40.197Z,-2.10
2022-12-11T22:14:07.496Z,-2.20
2022-12-11T22:16:35.154Z,-2.20
2022-12-11T22:19:02.075Z,-2.20
2022-12-11T22:21:29.356Z,-2.20
2022-12-11T22:23:56.210Z,-2.20
2022-12-11T22:26:25.481Z,-2.30
2022-12-11T22:28:52.956Z,-2.30
2022-12-11T22:31:22.577Z,-2.30
2022-12-11T22:33:51.237Z,-2.30
2022-12-11T22:36:18.953Z,-2.20
2022-12-11T22:38:46.397Z,-2.30
2022-12-11T22:41:28.528Z,-2.30
2022-12-11T22:43:56.953Z,-2.30
2022-12-11T22:46:26.750Z,-2.30
2022-12-11T22:48:53.691Z,-2.30
2022-12-11T22:51:21.386Z,-2.30
2022-12-11T22:53:48.246Z,-2.30
2022-12-11T22:56:15.037Z,-2.20
2022-12-11T22:58:42.357Z,-2.20
2022-12-11T23:01:11.958Z,-2.10
2022-12-11T23:03:39.096Z,-2.10
2022-12-11T23:06:08.808Z,-2.20
2022-12-11T23:08:36.219Z,-2.20
2022-12-11T23:11:09.920Z,-2.20
2022-12-11T23:13:36.726Z,-2.20
2022-12-11T23:16:03.835Z,-2.20
2022-12-11T23:18:30.624Z,-2.20
2022-12-11T23:20:57.480Z,-2.10
2022-12-11T23:23:24.863Z,-2.20
2022-12-11T23:25:51.751Z,-2.20
2022-12-11T23:28:19.759Z,-2.20
2022-12-11T23:30:47.049Z,-2.20
2022-12-11T23:33:14.121Z,-2.30
2022-12-11T23:35:40.906Z,-2.30
2022-12-11T23:38:08.241Z,-2.30
2022-12-11T23:40:35.220Z,-2.30
2022-12-11T23:43:02.051Z,-2.40
2022-12-11T23:45:28.841Z,-2.30
2022-12-11T23:47:55.969Z,-2.30
2022-12-11T23:50:25.508Z,-2.20
2022-12-11T23:52:52.615Z,-2.30
2022-12-11T23:55:19.582Z,-2.30
2022-12-11T23:57:46.414Z,-2.40
